createdAt,value
2023-02-25T00:01:35.809Z,7.50
2023-02-25T00:04:02.655Z,7.60
2023-02-25T00:06:29.406Z,7.50
2023-02-25T00:08:56.127Z,7.50
2023-02-25T00:11:25.857Z,7.50
2023-02-25T00:13:53.123Z,7.50
2023-02-25T00:16:22.590Z,7.50
2023-02-25T00:18:54.414Z,7.50
2023-02-25T00:21:21.061Z,7.50
2023-02-25T00:23:49.411Z,7.50
2023-02-25T00:26:17.317Z,7.50
2023-02-25T00:28:44.610Z,7.50
2023-02-25T00:31:16.942Z,7.50
2023-02-25T00:33:43.928Z,7.50
2023-02-25T00:36:13.330Z,7.50
2023-02-25T00:38:40.446Z,7.50
2023-02-25T00:41:12.701Z,7.50
2023-02-25T00:43:44.545Z,7.50
2023-02-25T00:46:12.423Z,7.50
2023-02-25T00:48:39.767Z,7.50
2023-02-25T00:51:12.462Z,7.50
2023-02-25T00:53:39.726Z,7.50
2023-02-25T00:56:08.510Z,7.50
2023-02-25T00:58:36.668Z,7.50
2023-02-25T01:01:05.631Z,7.50
2023-02-25T01:03:33.120Z,7.50
2023-02-25T01:05:59.910Z,7.50
2023-02-25T01:08:26.687Z,7.50
2023-02-25T01:10:53.724Z,7.50
2023-02-25T01:13:20.358Z,7.50
2023-02-25T01:15:47.244Z,7.50
2023-02-25T01:18:13.963Z,7.50
2023-02-25T01:20:40.950Z,7.50
2023-02-25T01:23:07.789Z,7.60
2023-02-25T01:25:34.740Z,7.60
2023-02-25T01:28:01.391Z,7.60
2023-02-25T01:30:28.127Z,7.60
2023-02-25T01:32:54.924Z,7.60
2023-02-25T01:35:21.689Z,7.60
2023-02-25T01:37:50.904Z,7.60
2023-02-25T01:40:18.220Z,7.60
2023-02-25T01:42:46.202Z,7.60
2023-02-25T01:45:21.889Z,7.60
2023-02-25T01:47:59.032Z,7.60
2023-02-25T01:50:30.374Z,7.70
2023-02-25T01:53:00.232Z,7.70
2023-02-25T01:55:27.045Z,7.70
2023-02-25T01:57:53.824Z,7.70
2023-02-25T02:00:20.845Z,7.70
2023-02-25T02:02:50.998Z,7.70
2023-02-25T02:05:17.888Z,7.70
2023-02-25T02:07:44.636Z,7.70
2023-02-25T02:10:11.724Z,7.70
2023-02-25T02:12:44.782Z,7.70
2023-02-25T02:15:14.169Z,7.70
2023-02-25T02:17:41.856Z,7.70
2023-02-25T02:20:26.452Z,7.70
2023-02-25T02:23:24.885Z,7.70
2023-02-25T02:26:24.576Z,7.70
2023-02-25T02:29:17.432Z,7.70
2023-02-25T02:31:57.625Z,7.70
2023-02-25T02:34:26.428Z,7.70
2023-02-25T02:37:26.736Z,7.70
2023-02-25T02:40:05.633Z,7.70
2023-02-25T02:43:02.090Z,7.70
2023-02-25T02:45:45.135Z,7.70
2023-02-25T02:48:22.371Z,7.70
2023-02-25T02:50:57.137Z,7.70
2023-02-25T02:53:41.386Z,7.70
2023-02-25T02:56:12.178Z,7.70
2023-02-25T02:58:47.049Z,7.70
2023-02-25T03:01:27.860Z,7.70
2023-02-25T03:04:07.775Z,7.70
2023-02-25T03:06:42.431Z,7.70
2023-02-25T03:09:28.024Z,7.70
2023-02-25T03:11:55.396Z,7.70
2023-02-25T03:14:22.873Z,7.70
2023-02-25T03:16:57.615Z,7.70
2023-02-25T03:19:43.588Z,7.70
2023-02-25T03:22:16.696Z,7.70
2023-02-25T03:25:36.678Z,7.70
2023-02-25T03:28:16.001Z,7.70
2023-02-25T03:31:01.434Z,7.70
2023-02-25T03:33:47.699Z,7.70
2023-02-25T03:36:34.542Z,7.70
2023-02-25T03:39:08.844Z,7.70
2023-02-25T03:41:40.691Z,7.70
2023-02-25T03:44:12.684Z,7.70
2023-02-25T03:46:43.074Z,7.60
2023-02-25T03:49:12.728Z,7.70
2023-02-25T03:51:41.458Z,7.60
2023-02-25T03:54:08.256Z,7.60
2023-02-25T03:56:51.220Z,7.60
2023-02-25T03:59:19.327Z,7.60
2023-02-25T04:01:50.184Z,7.60
2023-02-25T04:04:17.145Z,7.60
2023-02-25T04:06:43.810Z,7.60
2023-02-25T04:09:10.548Z,7.60
2023-02-25T04:11:37.254Z,7.60
2023-02-25T04:14:03.978Z,7.60
2023-02-25T04:16:31.256Z,7.60
2023-02-25T04:18:59.890Z,7.60
2023-02-25T04:21:35.603Z,7.60
2023-02-25T04:24:05.529Z,7.60
2023-02-25T04:26:33.071Z,7.50
2023-02-25T04:28:59.699Z,7.50
2023-02-25T04:31:26.657Z,7.50
2023-02-25T04:33:53.430Z,7.50
2023-02-25T04:36:23.318Z,7.60
2023-02-25T04:38:50.137Z,7.50
2023-02-25T04:41:16.751Z,7.50
2023-02-25T04:43:45.313Z,7.50
2023-02-25T04:46:13.354Z,7.50
2023-02-25T04:48:40.504Z,7.50
2023-02-25T04:51:08.302Z,7.50
2023-02-25T04:53:35.886Z,7.50
2023-02-25T04:56:06.749Z,7.50
2023-02-25T04:58:34.661Z,7.50
2023-02-25T05:01:03.426Z,7.50
2023-02-25T05:03:30.233Z,7.50
2023-02-25T05:05:57.007Z,7.50
2023-02-25T05:08:24.062Z,7.50
2023-02-25T05:10:51.105Z,7.50
2023-02-25T05:13:19.027Z,7.50
2023-02-25T05:15:46.030Z,7.50
2023-02-25T05:18:12.785Z,7.50
2023-02-25T05:20:44.436Z,7.50
2023-02-25T05:23:11.756Z,7.50
2023-02-25T05:25:41.587Z,7.50
2023-02-25T05:28:10.540Z,7.50
2023-02-25T05:30:38.835Z,7.50
2023-02-25T05:33:06.982Z,7.50
2023-02-25T05:35:33.646Z,7.50
2023-02-25T05:38:00.748Z,7.60
2023-02-25T05:40:27.532Z,7.60
2023-02-25T05:42:54.234Z,7.60
2023-02-25T05:45:21.035Z,7.60
2023-02-25T05:47:47.918Z,7.60
2023-02-25T05:50:14.773Z,7.60
2023-02-25T05:52:42.030Z,7.60
2023-02-25T05:55:09.486Z,7.60
2023-02-25T05:57:36.392Z,7.60
2023-02-25T06:00:09.043Z,7.60
2023-02-25T06:02:39.127Z,7.60
2023-02-25T06:05:06.569Z,7.60
2023-02-25T06:07:33.770Z,7.60
2023-02-25T06:10:01.035Z,7.60
2023-02-25T06:12:32.898Z,7.60
2023-02-25T06:15:00.150Z,7.60
2023-02-25T06:17:26.828Z,7.60
2023-02-25T06:19:54.038Z,7.60
2023-02-25T06:22:22.003Z,7.60
2023-02-25T06:24:49.134Z,7.60
2023-02-25T06:27:16.337Z,7.60
2023-02-25T06:29:43.003Z,7.70
2023-02-25T06:32:11.129Z,7.60
2023-02-25T06:34:38.913Z,7.60
2023-02-25T06:37:06.211Z,7.70
2023-02-25T06:39:33.247Z,7.60
2023-02-25T06:42:00.098Z,7.60
2023-02-25T06:44:30.675Z,7.70
2023-02-25T06:46:57.311Z,7.60
2023-02-25T06:49:24.554Z,7.60
2023-02-25T06:51:51.210Z,7.60
2023-02-25T06:54:18.769Z,7.70
2023-02-25T06:56:45.756Z,7.70
2023-02-25T06:59:12.659Z,7.70
2023-02-25T07:01:39.383Z,7.70
2023-02-25T07:04:06.140Z,7.70
2023-02-25T07:06:32.953Z,7.70
2023-02-25T07:08:59.669Z,7.70
2023-02-25T07:11:30.589Z,7.80
2023-02-25T07:13:57.819Z,7.70
2023-02-25T07:16:25.156Z,7.70
2023-02-25T07:18:52.089Z,7.70
2023-02-25T07:21:19.034Z,7.70
2023-02-25T07:23:46.510Z,7.70
2023-02-25T07:26:14.819Z,7.70
2023-02-25T07:28:42.964Z,7.70
2023-02-25T07:31:17.186Z,7.70
2023-02-25T07:33:44.473Z,7.70
2023-02-25T07:36:12.805Z,7.80
2023-02-25T07:38:39.922Z,7.80
2023-02-25T07:41:08.990Z,7.80
2023-02-25T07:43:35.743Z,7.80
2023-02-25T07:46:03.112Z,7.80
2023-02-25T07:48:29.827Z,7.90
2023-02-25T07:50:56.891Z,7.90
2023-02-25T07:53:23.585Z,7.90
2023-02-25T07:55:50.701Z,7.90
2023-02-25T07:58:17.396Z,7.90
2023-02-25T08:00:46.225Z,8.00
2023-02-25T08:03:13.056Z,8.00
2023-02-25T08:05:39.956Z,8.00
2023-02-25T08:08:06.890Z,8.10
2023-02-25T08:10:33.761Z,8.10
2023-02-25T08:13:00.447Z,8.10
2023-02-25T08:15:27.144Z,8.10
2023-02-25T08:17:55.690Z,8.10
2023-02-25T08:20:22.377Z,8.10
2023-02-25T08:22:49.076Z,8.10
2023-02-25T08:25:15.803Z,8.20
2023-02-25T08:27:43.973Z,8.20
2023-02-25T08:30:11.447Z,8.30
2023-02-25T08:32:38.571Z,8.30
2023-02-25T08:35:05.558Z,8.40
2023-02-25T08:37:33.225Z,8.50
2023-02-25T08:39:59.871Z,8.60
2023-02-25T08:42:26.561Z,8.70
2023-02-25T08:44:53.290Z,8.80
2023-02-25T08:47:20.204Z,9.00
2023-02-25T08:49:47.564Z,9.10
2023-02-25T08:52:14.557Z,9.10
2023-02-25T08:54:41.433Z,9.20
2023-02-25T08:57:08.304Z,9.30
2023-02-25T08:59:37.645Z,9.40
2023-02-25T09:02:06.235Z,9.50
2023-02-25T09:04:34.261Z,9.60
2023-02-25T09:07:02.726Z,9.60
2023-02-25T09:09:29.698Z,9.60
2023-02-25T09:11:56.675Z,9.60
2023-02-25T09:14:23.364Z,9.50
2023-02-25T09:16:50.193Z,9.50
2023-02-25T09:19:18.320Z,9.50
2023-02-25T09:21:48.004Z,9.50
2023-02-25T09:24:15.449Z,9.50
2023-02-25T09:26:42.201Z,9.60
2023-02-25T09:29:08.926Z,9.70
2023-02-25T09:31:37.422Z,9.90
2023-02-25T09:34:07.336Z,10.00
2023-02-25T09:36:34.041Z,10.10
2023-02-25T09:39:00.733Z,10.30
2023-02-25T09:41:39.346Z,10.40
2023-02-25T09:44:31.371Z,10.50
2023-02-25T09:47:06.823Z,10.70
2023-02-25T09:50:00.404Z,10.90
2023-02-25T09:52:43.215Z,11.20
2023-02-25T09:55:30.736Z,11.50
2023-02-25T09:58:28.494Z,11.80
2023-02-25T10:01:10.872Z,12.00
2023-02-25T10:04:08.254Z,12.10
2023-02-25T10:06:39.417Z,12.10
2023-02-25T10:09:18.147Z,12.10
2023-02-25T10:12:05.402Z,12.00
2023-02-25T10:14:38.071Z,11.90
2023-02-25T10:17:43.303Z,11.80
2023-02-25T10:20:35.042Z,11.70
2023-02-25T10:23:28.110Z,11.50
2023-02-25T10:26:10.251Z,11.40
2023-02-25T10:28:41.018Z,11.30
2023-02-25T10:31:18.654Z,11.40
2023-02-25T10:33:47.989Z,11.50
2023-02-25T10:36:14.662Z,11.60
2023-02-25T10:38:49.864Z,11.70
2023-02-25T10:41:17.032Z,11.70
2023-02-25T10:43:45.367Z,11.70
2023-02-25T10:46:26.808Z,11.70
2023-02-25T10:48:58.515Z,11.60
2023-02-25T10:51:27.377Z,11.50
2023-02-25T10:53:56.998Z,11.40
2023-02-25T10:56:45.162Z,11.40
2023-02-25T10:59:35.362Z,11.30
2023-02-25T11:02:03.095Z,11.20
2023-02-25T11:04:37.461Z,11.10
2023-02-25T11:07:24.582Z,11.00
2023-02-25T11:10:06.399Z,10.90
2023-02-25T11:12:41.685Z,10.90
2023-02-25T11:15:43.078Z,10.70
2023-02-25T11:18:26.521Z,10.70
2023-02-25T11:20:59.408Z,10.50
2023-02-25T11:23:45.330Z,10.50
2023-02-25T11:26:32.807Z,10.40
2023-02-25T11:29:09.979Z,10.40
2023-02-25T11:31:42.725Z,10.30
2023-02-25T11:34:24.839Z,10.30
2023-02-25T11:36:52.683Z,10.20
2023-02-25T11:39:25.211Z,10.20
2023-02-25T11:42:02.427Z,10.20
2023-02-25T11:44:39.794Z,10.20
2023-02-25T11:47:18.218Z,10.20
2023-02-25T11:50:06.729Z,10.10
2023-02-25T11:52:45.101Z,10.10
2023-02-25T11:55:44.710Z,10.10
2023-02-25T11:58:17.059Z,10.10
2023-02-25T12:01:12.143Z,10.10
2023-02-25T12:03:51.160Z,10.00
2023-02-25T12:06:22.554Z,10.00
2023-02-25T12:09:07.651Z,9.90
2023-02-25T12:12:20.537Z,9.90
2023-02-25T12:15:21.163Z,9.90
2023-02-25T12:18:07.295Z,9.90
2023-02-25T12:20:50.120Z,9.80
2023-02-25T12:23:36.233Z,9.80
2023-02-25T12:26:13.092Z,9.80
2023-02-25T12:29:04.087Z,9.80
2023-02-25T12:32:02.207Z,9.80
2023-02-25T12:34:56.946Z,9.80
2023-02-25T12:37:45.250Z,9.70
2023-02-25T12:40:40.424Z,9.70
2023-02-25T12:43:14.576Z,9.70
2023-02-25T12:45:57.570Z,9.70
2023-02-25T12:48:40.252Z,9.70
2023-02-25T12:51:25.711Z,9.70
2023-02-25T12:54:19.806Z,9.80
2023-02-25T12:57:10.926Z,9.70
2023-02-25T12:59:55.715Z,9.80
2023-02-25T13:03:00.015Z,9.70
2023-02-25T13:05:44.696Z,9.60
2023-02-25T13:08:44.437Z,9.60
2023-02-25T13:12:10.543Z,9.60
2023-02-25T13:15:14.713Z,9.50
2023-02-25T13:18:03.813Z,9.50
2023-02-25T13:20:36.818Z,9.40
2023-02-25T13:23:25.337Z,9.40
2023-02-25T13:26:29.890Z,9.30
2023-02-25T13:29:27.307Z,9.30
2023-02-25T13:32:14.236Z,9.20
2023-02-25T13:35:01.099Z,9.20
2023-02-25T13:37:46.267Z,9.20
2023-02-25T13:40:35.994Z,9.20
2023-02-25T13:43:12.561Z,9.10
2023-02-25T13:46:00.104Z,9.10
2023-02-25T13:48:55.544Z,9.00
2023-02-25T13:51:52.679Z,9.00
2023-02-25T13:54:37.117Z,9.00
2023-02-25T13:57:41.007Z,8.90
2023-02-25T14:00:38.974Z,8.90
2023-02-25T14:03:42.709Z,8.80
2023-02-25T14:06:44.432Z,8.70
2023-02-25T14:09:19.936Z,8.70
2023-02-25T14:12:13.158Z,8.70
2023-02-25T14:15:04.838Z,8.60
2023-02-25T14:17:52.892Z,8.60
2023-02-25T14:20:39.184Z,8.60
2023-02-25T14:23:15.968Z,8.60
2023-02-25T14:25:53.977Z,8.50
2023-02-25T14:28:48.929Z,8.50
2023-02-25T14:31:51.930Z,8.50
2023-02-25T14:34:28.909Z,8.50
2023-02-25T14:37:13.421Z,8.50
2023-02-25T14:40:07.984Z,8.50
2023-02-25T14:42:53.804Z,8.50
2023-02-25T14:45:28.144Z,8.50
2023-02-25T14:47:59.908Z,8.50
2023-02-25T14:50:42.069Z,8.50
2023-02-25T14:53:30.866Z,8.50
2023-02-25T14:56:26.195Z,8.50
2023-02-25T14:59:23.775Z,8.50
2023-02-25T15:02:32.271Z,8.50
2023-02-25T15:05:05.316Z,8.50
2023-02-25T15:07:38.006Z,8.50
2023-02-25T15:10:53.084Z,8.50
2023-02-25T15:13:29.327Z,8.40
2023-02-25T15:16:24.075Z,8.40
2023-02-25T15:19:12.340Z,8.40
2023-02-25T15:21:46.382Z,8.40
2023-02-25T15:24:39.309Z,8.40
2023-02-25T15:27:32.825Z,8.40
2023-02-25T15:30:01.984Z,8.40
2023-02-25T15:32:45.213Z,8.40
2023-02-25T15:35:15.320Z,8.40
2023-02-25T15:37:51.015Z,8.40
2023-02-25T15:40:18.886Z,8.40
2023-02-25T15:42:53.961Z,8.40
2023-02-25T15:45:27.324Z,8.40
2023-02-25T15:48:17.447Z,8.40
2023-02-25T15:50:44.131Z,8.40
2023-02-25T15:53:31.792Z,8.40
2023-02-25T15:56:04.257Z,8.40
2023-02-25T15:58:30.836Z,8.30
2023-02-25T16:00:59.480Z,8.30
2023-02-25T16:03:36.672Z,8.30
2023-02-25T16:06:32.092Z,8.30
2023-02-25T16:09:08.696Z,8.30
2023-02-25T16:11:46.424Z,8.20
2023-02-25T16:14:29.616Z,8.20
2023-02-25T16:17:14.865Z,8.10
2023-02-25T16:19:42.501Z,8.10
2023-02-25T16:22:14.508Z,8.00
2023-02-25T16:24:46.471Z,8.00
2023-02-25T16:27:34.220Z,8.00
2023-02-25T16:30:21.032Z,7.90
2023-02-25T16:33:04.719Z,7.90
2023-02-25T16:35:40.743Z,7.80
2023-02-25T16:38:25.040Z,7.80
2023-02-25T16:40:52.301Z,7.80
2023-02-25T16:43:27.236Z,7.70
2023-02-25T16:45:58.275Z,7.70
2023-02-25T16:48:38.958Z,7.60
2023-02-25T16:51:25.583Z,7.60
2023-02-25T16:54:10.117Z,7.60
2023-02-25T16:56:37.072Z,7.60
2023-02-25T16:59:15.862Z,7.50
2023-02-25T17:01:57.231Z,7.40
2023-02-25T17:04:37.687Z,7.40
2023-02-25T17:07:07.383Z,7.30
2023-02-25T17:09:35.014Z,7.30
2023-02-25T17:12:03.535Z,7.20
2023-02-25T17:14:31.461Z,7.20
2023-02-25T17:16:58.988Z,7.10
2023-02-25T17:19:26.646Z,7.10
2023-02-25T17:21:58.820Z,7.00
2023-02-25T17:24:32.378Z,7.00
2023-02-25T17:27:00.816Z,7.00
2023-02-25T17:29:35.767Z,6.90
2023-02-25T17:32:22.478Z,6.90
2023-02-25T17:34:52.388Z,6.80
2023-02-25T17:37:20.916Z,6.80
2023-02-25T17:39:48.005Z,6.80
2023-02-25T17:42:35.574Z,6.70
2023-02-25T17:45:04.878Z,6.70
2023-02-25T17:47:34.390Z,6.70
2023-02-25T17:50:29.880Z,6.70
2023-02-25T17:52:58.291Z,6.60
2023-02-25T17:55:34.074Z,6.60
2023-02-25T17:58:01.978Z,6.60
2023-02-25T18:00:35.953Z,6.50
2023-02-25T18:03:24.490Z,6.50
2023-02-25T18:05:55.585Z,6.50
2023-02-25T18:08:26.782Z,6.40
2023-02-25T18:11:12.834Z,6.40
2023-02-25T18:13:39.630Z,6.40
2023-02-25T18:16:31.088Z,6.40
2023-02-25T18:18:59.753Z,6.40
2023-02-25T18:21:26.601Z,6.30
2023-02-25T18:23:53.462Z,6.30
2023-02-25T18:26:26.399Z,6.30
2023-02-25T18:28:57.275Z,6.30
2023-02-25T18:31:24.128Z,6.30
2023-02-25T18:33:50.869Z,6.30
2023-02-25T18:36:27.994Z,6.20
2023-02-25T18:39:00.062Z,6.20
2023-02-25T18:41:26.746Z,6.20
2023-02-25T18:43:54.489Z,6.10
2023-02-25T18:46:21.373Z,6.10
2023-02-25T18:48:48.195Z,6.10
2023-02-25T18:51:15.273Z,6.10
2023-02-25T18:53:42.196Z,6.10
2023-02-25T18:56:16.009Z,6.10
2023-02-25T18:58:42.866Z,6.00
2023-02-25T19:01:23.897Z,6.00
2023-02-25T19:03:51.362Z,6.00
2023-02-25T19:06:18.345Z,6.00
2023-02-25T19:08:45.103Z,6.00
2023-02-25T19:11:23.286Z,6.00
2023-02-25T19:13:50.392Z,6.00
2023-02-25T19:16:19.021Z,6.00
2023-02-25T19:18:49.437Z,6.00
2023-02-25T19:21:20.126Z,6.00
2023-02-25T19:23:48.388Z,5.90
2023-02-25T19:26:16.054Z,5.90
2023-02-25T19:28:42.779Z,5.90
2023-02-25T19:31:09.628Z,5.90
2023-02-25T19:33:36.404Z,5.90
2023-02-25T19:36:04.873Z,5.90
2023-02-25T19:38:31.554Z,5.90
2023-02-25T19:41:03.663Z,5.90
2023-02-25T19:43:31.732Z,5.90
2023-02-25T19:45:58.383Z,5.90
2023-02-25T19:48:25.225Z,5.90
2023-02-25T19:50:51.906Z,5.90
2023-02-25T19:53:19.104Z,5.90
2023-02-25T19:55:45.795Z,5.90
2023-02-25T19:58:12.409Z,5.90
2023-02-25T20:00:45.662Z,5.90
2023-02-25T20:03:13.118Z,5.90
2023-02-25T20:05:40.102Z,5.90
2023-02-25T20:08:06.934Z,5.90
2023-02-25T20:10:33.731Z,5.80
2023-02-25T20:13:00.376Z,5.80
2023-02-25T20:15:27.556Z,5.80
2023-02-25T20:17:55.544Z,5.80
2023-02-25T20:20:23.714Z,5.80
2023-02-25T20:22:50.615Z,5.70
2023-02-25T20:25:17.539Z,5.70
2023-02-25T20:27:44.534Z,5.70
2023-02-25T20:30:14.705Z,5.60
2023-02-25T20:32:46.040Z,5.60
2023-02-25T20:35:20.404Z,5.60
2023-02-25T20:38:13.137Z,5.50
2023-02-25T20:40:39.902Z,5.50
2023-02-25T20:43:06.730Z,5.50
2023-02-25T20:45:33.860Z,5.50
2023-02-25T20:48:00.594Z,5.40
2023-02-25T20:50:28.627Z,5.40
2023-02-25T20:52:55.851Z,5.40
2023-02-25T20:55:22.959Z,5.30
2023-02-25T20:57:51.168Z,5.30
2023-02-25T21:00:20.337Z,5.30
2023-02-25T21:02:47.056Z,5.20
2023-02-25T21:05:13.870Z,5.20
2023-02-25T21:07:40.524Z,5.20
2023-02-25T21:10:07.908Z,5.10
2023-02-25T21:12:34.576Z,5.10
2023-02-25T21:15:01.335Z,5.10
2023-02-25T21:17:27.951Z,5.00
2023-02-25T21:19:54.677Z,5.00
2023-02-25T21:22:21.930Z,5.00
2023-02-25T21:24:48.574Z,5.00
2023-02-25T21:27:15.281Z,5.00
2023-02-25T21:29:41.996Z,4.90
2023-02-25T21:32:08.764Z,4.90
2023-02-25T21:34:37.082Z,4.90
2023-02-25T21:37:03.743Z,4.90
2023-02-25T21:39:30.361Z,4.90
2023-02-25T21:41:57.067Z,4.80
2023-02-25T21:44:23.864Z,4.80
2023-02-25T21:46:50.556Z,4.80
2023-02-25T21:49:17.234Z,4.80
2023-02-25T21:51:44.037Z,4.80
2023-02-25T21:54:10.732Z,4.70
2023-02-25T21:56:37.475Z,4.70
2023-02-25T21:59:05.573Z,4.70
2023-02-25T22:01:38.704Z,4.70
2023-02-25T22:04:06.104Z,4.70
2023-02-25T22:06:33.600Z,4.70
2023-02-25T22:09:00.775Z,4.70
2023-02-25T22:11:32.963Z,4.70
2023-02-25T22:14:01.944Z,4.70
2023-02-25T22:16:29.511Z,4.70
2023-02-25T22:18:56.554Z,4.70
2023-02-25T22:21:28.678Z,4.70
2023-02-25T22:23:57.821Z,4.70
2023-02-25T22:26:30.321Z,4.70
2023-02-25T22:28:59.545Z,4.70
2023-02-25T22:31:27.341Z,4.70
2023-02-25T22:33:56.046Z,4.70
2023-02-25T22:36:23.341Z,4.70
2023-02-25T22:38:50.414Z,4.70
2023-02-25T22:41:23.191Z,4.70
2023-02-25T22:43:50.573Z,4.60
2023-02-25T22:46:20.462Z,4.60
2023-02-25T22:48:48.801Z,4.60
2023-02-25T22:51:27.362Z,4.60
2023-02-25T22:53:55.285Z,4.60
2023-02-25T22:56:23.160Z,4.60
2023-02-25T22:58:50.024Z,4.60
2023-02-25T23:01:19.363Z,4.60
2023-02-25T23:03:47.372Z,4.50
2023-02-25T23:06:16.214Z,4.50
2023-02-25T23:08:43.730Z,4.50
2023-02-25T23:11:26.884Z,4.50
2023-02-25T23:13:58.193Z,4.50
2023-02-25T23:16:28.912Z,4.50
2023-02-25T23:19:00.123Z,4.40
2023-02-25T23:21:28.001Z,4.40
2023-02-25T23:23:57.624Z,4.40
2023-02-25T23:26:33.308Z,4.40
2023-02-25T23:29:02.922Z,4.40
2023-02-25T23:31:32.759Z,4.40
2023-02-25T23:34:03.260Z,4.40
2023-02-25T23:36:30.184Z,4.40
2023-02-25T23:38:59.163Z,4.40
2023-02-25T23:41:26.613Z,4.30
2023-02-25T23:43:54.834Z,4.40
2023-02-25T23:46:23.001Z,4.30
2023-02-25T23:48:49.992Z,4.30
2023-02-25T23:51:16.890Z,4.30
2023-02-25T23:53:43.886Z,4.30
2023-02-25T23:56:12.851Z,4.30
2023-02-25T23:58:40.350Z,4.30
